Time,TemperatureF,DewpointF,PressureIn,WindDirection,WindDirectionDegrees,WindSpeedMPH,WindSpeedGustMPH,Humidity,HourlyPrecipIn,Conditions,Clouds,dailyrainin,SoftwareType,DateUTC
2013-01-11 00:03:00,35.1,30.4,29.77,South,180,0.0,0.0,83,0.00,,,0.00,WUHU21636XXSP,2013-01-11 06:03:00,
2013-01-11 00:08:00,34.9,30.2,29.77,NW,315,0.0,0.0,83,0.00,,,0.00,WUHU21636XXSP,2013-01-11 06:08:00,
2013-01-11 00:13:00,34.9,30.2,29.77,ESE,112,0.0,0.0,83,0.00,,,0.00,WUHU21636XXSP,2013-01-11 06:13:00,
2013-01-11 00:18:00,34.9,30.2,29.76,ESE,112,0.0,0.0,83,0.00,,,0.00,WUHU21636XXSP,2013-01-11 06:18:00,
2013-01-11 00:23:00,34.9,30.2,29.76,ESE,112,0.0,0.0,83,0.00,,,0.00,WUHU21636XXSP,2013-01-11 06:23:00,
2013-01-11 00:28:00,34.9,30.5,29.76,ESE,112,0.0,0.0,84,0.00,,,0.00,WUHU21636XXSP,2013-01-11 06:28:00,
2013-01-11 00:33:00,34.7,30.3,29.76,ESE,112,0.0,0.0,84,0.00,,,0.00,WUHU21636XXSP,2013-01-11 06:33:00,
2013-01-11 00:38:00,34.7,30.3,29.76,ESE,112,0.0,0.0,84,0.00,,,0.00,WUHU21636XXSP,2013-01-11 06:38:00,
2013-01-11 00:43:00,34.7,30.3,29.76,ESE,112,0.0,0.0,84,0.00,,,0.00,WUHU21636XXSP,2013-01-11 06:43:00,
2013-01-11 00:48:00,34.7,30.3,29.76,ESE,112,0.0,0.0,84,0.00,,,0.00,WUHU21636XXSP,2013-01-11 06:48:00,
2013-01-11 00:53:00,34.7,30.3,29.75,ESE,112,0.0,0.0,84,0.00,,,0.00,WUHU21636XXSP,2013-01-11 06:53:00,
2013-01-11 00:58:00,34.7,30.3,29.74,ESE,112,0.0,0.0,84,0.00,,,0.00,WUHU21636XXSP,2013-01-11 06:58:00,
2013-01-11 01:03:00,34.5,30.2,29.75,ESE,112,0.0,0.0,84,0.00,,,0.00,WUHU21636XXSP,2013-01-11 07:03:00,
2013-01-11 01:08:00,34.3,30.0,29.75,ESE,112,0.0,0.0,84,0.00,,,0.00,WUHU21636XXSP,2013-01-11 07:08:00,
2013-01-11 01:13:00,34.3,30.0,29.74,ESE,112,0.0,0.0,84,0.00,,,0.00,WUHU21636XXSP,2013-01-11 07:13:00,
2013-01-11 01:18:00,34.1,29.5,29.75,ESE,112,0.0,0.0,83,0.00,,,0.00,WUHU21636XXSP,2013-01-11 07:18:00,
2013-01-11 01:23:00,34.1,29.5,29.74,NNW,337,0.0,0.0,83,0.00,,,0.00,WUHU21636XXSP,2013-01-11 07:23:00,
2013-01-11 01:28:00,34.3,30.0,29.74,NNE,22,0.0,0.0,84,0.00,,,0.00,WUHU21636XXSP,2013-01-11 07:28:00,
2013-01-11 01:33:00,34.5,30.2,29.75,NNE,22,0.0,0.0,84,0.00,,,0.00,WUHU21636XXSP,2013-01-11 07:33:00,
2013-01-11 01:38:00,34.5,30.2,29.75,NNE,22,0.0,0.0,84,0.00,,,0.00,WUHU21636XXSP,2013-01-11 07:38:00,
2013-01-11 01:43:00,34.3,30.0,29.75,NNE,22,0.0,0.0,84,0.00,,,0.00,WUHU21636XXSP,2013-01-11 07:43:00,
2013-01-11 01:48:00,34.5,30.2,29.75,North,0,0.0,0.0,84,0.00,,,0.00,WUHU21636XXSP,2013-01-11 07:48:00,
2013-01-11 01:53:00,34.5,30.2,29.75,North,0,0.0,0.0,84,0.00,,,0.00,WUHU21636XXSP,2013-01-11 07:53:00,
2013-01-11 01:58:00,34.5,30.2,29.74,North,0,0.0,0.0,84,0.00,,,0.00,WUHU21636XXSP,2013-01-11 07:58:00,
2013-01-11 02:03:00,34.5,30.2,29.75,North,0,0.0,0.0,84,0.00,,,0.00,WUHU21636XXSP,2013-01-11 08:03:00,
2013-01-11 02:08:00,34.1,29.8,29.75,North,0,0.0,0.0,84,0.00,,,0.00,WUHU21636XXSP,2013-01-11 08:08:00,
2013-01-11 02:13:00,34.1,29.8,29.74,North,0,0.0,0.0,84,0.00,,,0.00,WUHU21636XXSP,2013-01-11 08:13:00,
2013-01-11 02:18:00,34.1,29.8,29.75,North,0,0.0,0.0,84,0.00,,,0.00,WUHU21636XXSP,2013-01-11 08:18:00,
2013-01-11 02:23:00,33.9,29.6,29.74,North,0,0.0,0.0,84,0.00,,,0.00,WUHU21636XXSP,2013-01-11 08:23:00,
2013-01-11 02:28:00,34.1,29.8,29.74,North,0,0.0,0.0,84,0.00,,,0.00,WUHU21636XXSP,2013-01-11 08:28:00,
2013-01-11 02:33:00,34.1,29.8,29.74,North,0,0.0,0.0,84,0.00,,,0.00,WUHU21636XXSP,2013-01-11 08:33:00,
2013-01-11 02:38:00,33.9,29.6,29.74,North,0,0.0,0.0,84,0.02,,,0.01,WUHU21636XXSP,2013-01-11 08:38:00,
2013-01-11 02:43:00,33.9,29.6,29.74,North,0,0.0,0.0,84,0.02,,,0.01,WUHU21636XXSP,2013-01-11 08:43:00,
2013-01-11 02:48:00,34.1,29.8,29.73,North,0,0.0,0.0,84,0.02,,,0.01,WUHU21636XXSP,2013-01-11 08:48:00,
2013-01-11 02:53:00,34.3,30.0,29.73,NW,315,0.0,0.0,84,0.02,,,0.01,WUHU21636XXSP,2013-01-11 08:53:00,
2013-01-11 02:58:00,34.1,29.8,29.73,NW,315,0.0,0.0,84,0.02,,,0.01,WUHU21636XXSP,2013-01-11 08:58:00,
2013-01-11 03:03:00,33.9,29.6,29.73,NW,315,0.0,0.0,84,0.02,,,0.01,WUHU21636XXSP,2013-01-11 09:03:00,
2013-01-11 03:08:00,33.9,29.6,29.72,NW,315,0.0,0.0,84,0.02,,,0.01,WUHU21636XXSP,2013-01-11 09:08:00,
2013-01-11 03:13:00,33.7,29.4,29.72,NW,315,0.0,0.0,84,0.02,,,0.01,WUHU21636XXSP,2013-01-11 09:13:00,
2013-01-11 03:18:00,33.7,29.4,29.72,NW,315,0.0,0.0,84,0.02,,,0.01,WUHU21636XXSP,2013-01-11 09:18:00,
2013-01-11 03:23:00,33.7,29.4,29.71,NW,315,0.0,0.0,84,0.02,,,0.01,WUHU21636XXSP,2013-01-11 09:23:00,
2013-01-11 03:28:00,33.7,29.4,29.71,NW,315,0.0,0.0,84,0.02,,,0.01,WUHU21636XXSP,2013-01-11 09:28:00,
2013-01-11 03:33:00,33.7,29.4,29.70,NW,315,0.0,0.0,84,0.02,,,0.01,WUHU21636XXSP,2013-01-11 09:33:00,
2013-01-11 03:38:00,33.7,29.4,29.70,NW,315,0.0,0.0,84,0.02,,,0.01,WUHU21636XXSP,2013-01-11 09:38:00,
2013-01-11 03:43:00,33.6,29.3,29.69,NW,315,0.0,0.0,84,0.02,,,0.01,WUHU21636XXSP,2013-01-11 09:43:00,
2013-01-11 03:48:00,33.7,29.4,29.69,NW,315,0.0,0.0,84,0.02,,,0.01,WUHU21636XXSP,2013-01-11 09:48:00,
2013-01-11 03:53:00,33.6,29.3,29.68,NW,315,0.0,0.0,84,0.02,,,0.01,WUHU21636XXSP,2013-01-11 09:53:00,
2013-01-11 03:58:00,33.6,29.3,29.67,NW,315,0.0,0.0,84,0.02,,,0.01,WUHU21636XXSP,2013-01-11 09:58:00,
2013-01-11 04:03:00,33.6,29.3,29.67,NW,315,0.0,0.0,84,0.00,,,0.01,WUHU21636XXSP,2013-01-11 10:03:00,
2013-01-11 04:08:00,33.9,29.6,29.67,NW,315,0.0,0.0,84,0.00,,,0.01,WUHU21636XXSP,2013-01-11 10:08:00,
2013-01-11 04:13:00,33.9,29.6,29.67,NW,315,0.0,0.0,84,0.00,,,0.01,WUHU21636XXSP,2013-01-11 10:13:00,
2013-01-11 04:19:00,33.9,29.6,29.67,NW,315,0.0,0.0,84,0.00,,,0.01,WUHU21636XXSP,2013-01-11 10:19:00,
2013-01-11 04:24:00,33.7,29.4,29.67,NW,315,0.0,0.0,84,0.00,,,0.01,WUHU21636XXSP,2013-01-11 10:24:00,
2013-01-11 04:29:00,33.7,29.4,29.66,NW,315,0.0,0.0,84,0.00,,,0.01,WUHU21636XXSP,2013-01-11 10:29:00,
2013-01-11 04:34:00,33.7,29.4,29.66,NW,315,0.0,0.0,84,0.00,,,0.01,WUHU21636XXSP,2013-01-11 10:34:00,
2013-01-11 04:39:00,33.7,29.4,29.66,NW,315,0.0,0.0,84,0.00,,,0.01,WUHU21636XXSP,2013-01-11 10:39:00,
2013-01-11 04:44:00,33.7,29.4,29.66,NW,315,0.0,0.0,84,0.00,,,0.01,WUHU21636XXSP,2013-01-11 10:44:00,
2013-01-11 04:49:00,33.7,29.4,29.66,NW,315,0.0,0.0,84,0.00,,,0.01,WUHU21636XXSP,2013-01-11 10:49:00,
2013-01-11 04:54:00,33.7,29.4,29.66,NW,315,0.0,0.0,84,0.00,,,0.01,WUHU21636XXSP,2013-01-11 10:54:00,
2013-01-11 04:59:00,33.7,29.4,29.66,NW,315,0.0,0.0,84,0.00,,,0.01,WUHU21636XXSP,2013-01-11 10:59:00,
2013-01-11 05:04:00,33.7,29.4,29.66,NW,315,0.0,0.0,84,0.00,,,0.01,WUHU21636XXSP,2013-01-11 11:04:00,
2013-01-11 05:09:00,33.7,29.4,29.66,NW,315,0.0,0.0,84,0.00,,,0.01,WUHU21636XXSP,2013-01-11 11:09:00,
2013-01-11 05:14:00,33.7,29.4,29.66,NW,315,0.0,0.0,84,0.00,,,0.01,WUHU21636XXSP,2013-01-11 11:14:00,
2013-01-11 05:19:00,33.6,29.3,29.66,NW,315,0.0,0.0,84,0.00,,,0.01,WUHU21636XXSP,2013-01-11 11:19:00,
2013-01-11 05:24:00,33.4,29.1,29.66,NW,315,0.0,0.0,84,0.00,,,0.01,WUHU21636XXSP,2013-01-11 11:24:00,
2013-01-11 05:29:00,33.4,29.1,29.66,NW,315,0.0,0.0,84,0.00,,,0.01,WUHU21636XXSP,2013-01-11 11:29:00,
2013-01-11 05:34:00,33.6,29.3,29.66,NW,315,0.0,0.0,84,0.00,,,0.01,WUHU21636XXSP,2013-01-11 11:34:00,
2013-01-11 05:39:00,33.4,29.1,29.66,NW,315,0.0,0.0,84,0.00,,,0.01,WUHU21636XXSP,2013-01-11 11:39:00,
2013-01-11 05:44:00,33.4,29.1,29.65,NW,315,0.0,0.0,84,0.00,,,0.01,WUHU21636XXSP,2013-01-11 11:44:00,
2013-01-11 05:49:00,33.4,29.1,29.65,NW,315,0.0,0.0,84,0.00,,,0.01,WUHU21636XXSP,2013-01-11 11:49:00,
2013-01-11 05:54:00,33.2,28.9,29.64,NW,315,0.0,0.0,84,0.00,,,0.01,WUHU21636XXSP,2013-01-11 11:54:00,
2013-01-11 05:59:00,33.2,28.9,29.64,NW,315,0.0,0.0,84,0.00,,,0.01,WUHU21636XXSP,2013-01-11 11:59:00,
2013-01-11 06:04:00,33.2,28.9,29.64,NW,315,0.0,0.0,84,0.00,,,0.01,WUHU21636XXSP,2013-01-11 12:04:00,
2013-01-11 06:09:00,33.2,28.9,29.64,NW,315,0.0,0.0,84,0.00,,,0.01,WUHU21636XXSP,2013-01-11 12:09:00,
2013-01-11 06:14:00,33.4,29.1,29.64,NW,315,0.0,0.0,84,0.00,,,0.01,WUHU21636XXSP,2013-01-11 12:14:00,
2013-01-11 06:19:00,33.4,29.1,29.65,NW,315,0.0,0.0,84,0.00,,,0.01,WUHU21636XXSP,2013-01-11 12:19:00,
2013-01-11 06:24:00,33.4,29.1,29.65,NW,315,0.0,0.0,84,0.00,,,0.01,WUHU21636XXSP,2013-01-11 12:24:00,
2013-01-11 06:29:00,33.4,29.1,29.65,NW,315,0.0,0.0,84,0.00,,,0.01,WUHU21636XXSP,2013-01-11 12:29:00,
2013-01-11 06:34:00,33.4,29.1,29.65,NW,315,0.0,0.0,84,0.00,,,0.01,WUHU21636XXSP,2013-01-11 12:34:00,
2013-01-11 06:39:00,33.6,29.5,29.65,NW,315,0.0,0.0,85,0.00,,,0.01,WUHU21636XXSP,2013-01-11 12:39:00,
2013-01-11 06:44:00,34.3,30.3,29.64,NW,315,0.0,0.0,85,0.00,,,0.01,WUHU21636XXSP,2013-01-11 12:44:00,
2013-01-11 06:49:00,34.3,30.0,29.64,NW,315,0.0,0.0,84,0.00,,,0.01,WUHU21636XXSP,2013-01-11 12:49:00,
2013-01-11 06:54:00,34.3,30.3,29.64,NW,315,0.0,0.0,85,0.00,,,0.01,WUHU21636XXSP,2013-01-11 12:54:00,
2013-01-11 06:59:00,34.7,30.6,29.64,NW,315,0.0,0.0,85,0.00,,,0.01,WUHU21636XXSP,2013-01-11 12:59:00,
2013-01-11 07:04:00,34.3,30.3,29.65,NW,315,0.0,0.0,85,0.00,,,0.01,WUHU21636XXSP,2013-01-11 13:04:00,
2013-01-11 07:09:00,34.3,30.3,29.65,WSW,247,0.0,0.0,85,0.00,,,0.01,WUHU21636XXSP,2013-01-11 13:09:00,
2013-01-11 07:14:00,34.9,30.8,29.65,WNW,292,0.0,0.0,85,0.00,,,0.01,WUHU21636XXSP,2013-01-11 13:14:00,
2013-01-11 07:19:00,34.9,30.8,29.64,West,270,0.0,0.0,85,0.00,,,0.01,WUHU21636XXSP,2013-01-11 13:19:00,
2013-01-11 07:24:00,35.1,31.0,29.64,WNW,292,0.0,0.0,85,0.00,,,0.01,WUHU21636XXSP,2013-01-11 13:24:00,
2013-01-11 07:29:00,35.1,31.0,29.64,WNW,292,0.0,0.0,85,0.00,,,0.01,WUHU21636XXSP,2013-01-11 13:29:00,
2013-01-11 07:34:00,35.1,31.0,29.64,WNW,292,0.0,0.0,85,0.00,,,0.01,WUHU21636XXSP,2013-01-11 13:34:00,
2013-01-11 07:39:00,35.3,30.9,29.64,WNW,292,0.0,0.0,84,0.00,,,0.01,WUHU21636XXSP,2013-01-11 13:39:00,
2013-01-11 07:44:00,35.3,30.9,29.63,West,270,0.0,0.0,84,0.00,,,0.01,WUHU21636XXSP,2013-01-11 13:44:00,
2013-01-11 07:49:00,35.3,30.9,29.63,West,270,0.0,0.0,84,0.00,,,0.01,WUHU21636XXSP,2013-01-11 13:49:00,
2013-01-11 07:54:00,35.3,30.9,29.63,West,270,0.0,0.0,84,0.00,,,0.01,WUHU21636XXSP,2013-01-11 13:54:00,
2013-01-11 07:59:00,35.3,30.9,29.63,ENE,67,0.0,0.0,84,0.00,,,0.01,WUHU21636XXSP,2013-01-11 13:59:00,
2013-01-11 08:04:00,35.5,31.1,29.62,WNW,292,0.0,0.0,84,0.00,,,0.01,WUHU21636XXSP,2013-01-11 14:04:00,
2013-01-11 08:09:00,35.6,31.2,29.62,WNW,292,0.0,0.0,84,0.00,,,0.01,WUHU21636XXSP,2013-01-11 14:09:00,
2013-01-11 08:14:00,35.6,31.2,29.63,West,270,0.0,0.0,84,0.00,,,0.01,WUHU21636XXSP,2013-01-11 14:14:00,
2013-01-11 08:19:00,35.6,31.2,29.63,West,270,0.0,0.0,84,0.00,,,0.01,WUHU21636XXSP,2013-01-11 14:19:00,
2013-01-11 08:24:00,35.8,31.4,29.63,West,270,0.0,0.0,84,0.00,,,0.01,WUHU21636XXSP,2013-01-11 14:24:00,
2013-01-11 08:29:00,35.8,31.4,29.62,NE,45,0.0,0.0,84,0.00,,,0.01,WUHU21636XXSP,2013-01-11 14:29:00,
2013-01-11 08:34:00,35.8,31.4,29.62,South,180,0.0,0.0,84,0.00,,,0.01,WUHU21636XXSP,2013-01-11 14:34:00,
2013-01-11 08:39:00,36.2,31.8,29.62,West,270,0.0,0.0,84,0.00,,,0.01,WUHU21636XXSP,2013-01-11 14:39:00,
2013-01-11 08:44:00,36.0,31.6,29.63,West,270,0.0,0.0,84,0.00,,,0.01,WUHU21636XXSP,2013-01-11 14:44:00,
2013-01-11 08:49:00,35.8,31.4,29.63,West,270,0.0,0.0,84,0.00,,,0.01,WUHU21636XXSP,2013-01-11 14:49:00,
2013-01-11 08:54:00,35.8,31.4,29.63,West,270,0.0,0.0,84,0.00,,,0.01,WUHU21636XXSP,2013-01-11 14:54:00,
2013-01-11 08:59:00,35.8,31.4,29.63,West,270,0.0,0.0,84,0.00,,,0.01,WUHU21636XXSP,2013-01-11 14:59:00,
2013-01-11 09:04:00,35.6,31.2,29.63,West,270,0.0,0.0,84,0.00,,,0.01,WUHU21636XXSP,2013-01-11 15:04:00,
2013-01-11 09:09:00,35.6,31.2,29.64,West,270,0.0,0.0,84,0.00,,,0.01,WUHU21636XXSP,2013-01-11 15:09:00,
2013-01-11 09:14:00,35.6,31.2,29.63,West,270,0.0,0.0,84,0.00,,,0.01,WUHU21636XXSP,2013-01-11 15:14:00,
2013-01-11 09:19:00,35.6,31.2,29.63,West,270,0.0,0.0,84,0.00,,,0.01,WUHU21636XXSP,2013-01-11 15:19:00,
2013-01-11 09:24:00,35.6,31.2,29.64,West,270,0.0,0.0,84,0.00,,,0.01,WUHU21636XXSP,2013-01-11 15:24:00,
2013-01-11 09:29:00,35.8,31.4,29.64,West,270,0.0,0.0,84,0.00,,,0.01,WUHU21636XXSP,2013-01-11 15:29:00,
2013-01-11 09:34:00,35.8,31.4,29.64,West,270,0.0,0.0,84,0.00,,,0.01,WUHU21636XXSP,2013-01-11 15:34:00,
2013-01-11 09:39:00,36.2,31.8,29.63,West,270,0.0,0.0,84,0.00,,,0.01,WUHU21636XXSP,2013-01-11 15:39:00,
2013-01-11 09:44:00,36.2,31.8,29.63,West,270,0.0,0.0,84,0.00,,,0.01,WUHU21636XXSP,2013-01-11 15:44:00,
2013-01-11 09:49:00,36.2,31.8,29.63,West,270,0.0,0.0,84,0.00,,,0.01,WUHU21636XXSP,2013-01-11 15:49:00,
2013-01-11 09:54:00,36.5,32.1,29.63,West,270,0.0,0.0,84,0.00,,,0.01,WUHU21636XXSP,2013-01-11 15:54:00,
2013-01-11 09:59:00,36.5,32.1,29.63,West,270,0.0,0.0,84,0.00,,,0.01,WUHU21636XXSP,2013-01-11 15:59:00,
2013-01-11 10:04:00,36.8,32.4,29.63,West,270,0.0,0.0,84,0.00,,,0.01,WUHU21636XXSP,2013-01-11 16:04:00,
2013-01-11 10:09:00,37.0,32.6,29.63,West,270,0.0,0.0,84,0.00,,,0.01,WUHU21636XXSP,2013-01-11 16:09:00,
2013-01-11 10:14:00,37.2,32.8,29.63,West,270,0.0,0.0,84,0.00,,,0.01,WUHU21636XXSP,2013-01-11 16:14:00,
2013-01-11 10:19:00,37.2,32.8,29.62,West,270,0.0,0.0,84,0.00,,,0.01,WUHU21636XXSP,2013-01-11 16:19:00,
2013-01-11 10:24:00,37.4,33.0,29.63,West,270,0.0,0.0,84,0.00,,,0.01,WUHU21636XXSP,2013-01-11 16:24:00,
2013-01-11 10:29:00,37.5,33.1,29.63,West,270,0.0,0.0,84,0.00,,,0.01,WUHU21636XXSP,2013-01-11 16:29:00,
2013-01-11 10:34:00,37.5,33.1,29.63,West,270,0.0,0.0,84,0.00,,,0.01,WUHU21636XXSP,2013-01-11 16:34:00,
2013-01-11 10:39:00,37.5,33.1,29.63,West,270,0.0,0.0,84,0.00,,,0.01,WUHU21636XXSP,2013-01-11 16:39:00,
2013-01-11 10:44:00,37.5,33.1,29.63,West,270,0.0,0.0,84,0.00,,,0.01,WUHU21636XXSP,2013-01-11 16:44:00,
2013-01-11 10:49:00,37.5,33.1,29.63,WSW,247,0.0,0.0,84,0.00,,,0.01,WUHU21636XXSP,2013-01-11 16:49:00,
2013-01-11 10:54:00,37.5,33.1,29.63,WSW,247,0.0,0.0,84,0.00,,,0.01,WUHU21636XXSP,2013-01-11 16:54:00,
2013-01-11 10:59:00,37.5,33.1,29.63,WNW,292,0.0,0.0,84,0.00,,,0.01,WUHU21636XXSP,2013-01-11 16:59:00,
2013-01-11 11:04:00,37.2,32.8,29.62,WSW,247,0.0,0.0,84,0.00,,,0.01,WUHU21636XXSP,2013-01-11 17:04:00,
2013-01-11 11:09:00,37.2,32.8,29.62,West,270,0.0,0.0,84,0.00,,,0.01,WUHU21636XXSP,2013-01-11 17:09:00,
2013-01-11 11:14:00,37.2,32.8,29.62,WNW,292,0.0,0.0,84,0.00,,,0.01,WUHU21636XXSP,2013-01-11 17:14:00,
2013-01-11 11:19:00,37.2,32.8,29.62,West,270,0.0,0.0,84,0.00,,,0.01,WUHU21636XXSP,2013-01-11 17:19:00,
2013-01-11 11:24:00,37.2,32.8,29.62,West,270,0.0,0.0,84,0.00,,,0.01,WUHU21636XXSP,2013-01-11 17:24:00,
2013-01-11 11:29:00,37.2,32.8,29.62,West,270,0.0,0.0,84,0.00,,,0.01,WUHU21636XXSP,2013-01-11 17:29:00,
2013-01-11 11:34:00,37.0,32.6,29.63,West,270,0.0,0.0,84,0.00,,,0.01,WUHU21636XXSP,2013-01-11 17:34:00,
2013-01-11 11:39:00,37.2,32.8,29.62,WSW,247,0.0,0.0,84,0.00,,,0.01,WUHU21636XXSP,2013-01-11 17:39:00,
2013-01-11 11:44:00,37.2,32.8,29.62,West,270,0.0,0.0,84,0.00,,,0.01,WUHU21636XXSP,2013-01-11 17:44:00,
2013-01-11 11:49:00,37.2,32.8,29.62,SW,225,0.0,0.0,84,0.00,,,0.01,WUHU21636XXSP,2013-01-11 17:49:00,
2013-01-11 11:54:00,37.2,32.8,29.61,West,270,0.0,0.0,84,0.00,,,0.01,WUHU21636XXSP,2013-01-11 17:54:00,
2013-01-11 11:59:00,37.2,32.8,29.61,WNW,292,0.0,0.0,84,0.00,,,0.01,WUHU21636XXSP,2013-01-11 17:59:00,
2013-01-11 12:04:00,37.5,33.1,29.61,West,270,0.0,0.0,84,0.00,,,0.01,WUHU21636XXSP,2013-01-11 18:04:00,
2013-01-11 12:09:00,37.5,33.1,29.60,West,270,0.0,0.0,84,0.00,,,0.01,WUHU21636XXSP,2013-01-11 18:09:00,
2013-01-11 12:14:00,37.5,33.1,29.60,NNE,22,0.0,0.0,84,0.00,,,0.01,WUHU21636XXSP,2013-01-11 18:14:00,
2013-01-11 12:19:00,37.7,33.3,29.60,West,270,0.0,0.0,84,0.00,,,0.01,WUHU21636XXSP,2013-01-11 18:19:00,
2013-01-11 12:24:00,38.1,33.7,29.61,WNW,292,0.0,0.0,84,0.00,,,0.01,WUHU21636XXSP,2013-01-11 18:24:00,
2013-01-11 12:29:00,38.1,33.7,29.60,WSW,247,0.0,0.0,84,0.00,,,0.01,WUHU21636XXSP,2013-01-11 18:29:00,
2013-01-11 12:34:00,38.1,33.7,29.59,West,270,0.0,0.0,84,0.00,,,0.01,WUHU21636XXSP,2013-01-11 18:34:00,
2013-01-11 12:39:00,38.4,34.0,29.58,WNW,292,0.0,0.0,84,0.00,,,0.01,WUHU21636XXSP,2013-01-11 18:39:00,
2013-01-11 12:44:00,38.6,34.2,29.59,West,270,0.0,0.0,84,0.00,,,0.01,WUHU21636XXSP,2013-01-11 18:44:00,
2013-01-11 12:49:00,38.4,34.0,29.59,NNW,337,0.0,0.0,84,0.00,,,0.01,WUHU21636XXSP,2013-01-11 18:49:00,
2013-01-11 12:54:00,38.6,34.2,29.58,WSW,247,0.0,0.0,84,0.00,,,0.01,WUHU21636XXSP,2013-01-11 18:54:00,
2013-01-11 12:59:00,38.4,34.0,29.58,WNW,292,0.0,0.0,84,0.00,,,0.01,WUHU21636XXSP,2013-01-11 18:59:00,
2013-01-11 13:04:00,38.4,34.0,29.58,West,270,0.0,0.0,84,0.00,,,0.01,WUHU21636XXSP,2013-01-11 19:04:00,
2013-01-11 13:09:00,38.4,34.0,29.59,West,270,0.0,0.0,84,0.00,,,0.01,WUHU21636XXSP,2013-01-11 19:09:00,
2013-01-11 13:14:00,38.4,34.0,29.59,West,270,0.0,0.0,84,0.00,,,0.01,WUHU21636XXSP,2013-01-11 19:14:00,
2013-01-11 13:19:00,38.4,34.0,29.58,West,270,0.0,0.0,84,0.00,,,0.01,WUHU21636XXSP,2013-01-11 19:19:00,
2013-01-11 13:24:00,38.6,34.2,29.58,West,270,0.0,0.0,84,0.00,,,0.01,WUHU21636XXSP,2013-01-11 19:24:00,
2013-01-11 13:29:00,38.4,34.0,29.57,NW,315,0.0,0.0,84,0.00,,,0.01,WUHU21636XXSP,2013-01-11 19:29:00,
2013-01-11 13:34:00,38.4,34.0,29.57,NW,315,0.0,0.0,84,0.00,,,0.01,WUHU21636XXSP,2013-01-11 19:34:00,
2013-01-11 13:39:00,38.6,34.2,29.57,NW,315,0.0,0.0,84,0.00,,,0.01,WUHU21636XXSP,2013-01-11 19:39:00,
2013-01-11 13:44:00,38.8,34.4,29.57,NW,315,0.0,0.0,84,0.00,,,0.01,WUHU21636XXSP,2013-01-11 19:44:00,
2013-01-11 13:49:00,39.1,34.6,29.57,NW,315,0.0,0.0,84,0.00,,,0.01,WUHU21636XXSP,2013-01-11 19:49:00,
2013-01-11 13:54:00,38.8,34.4,29.55,ENE,67,0.0,0.0,84,0.00,,,0.01,WUHU21636XXSP,2013-01-11 19:54:00,
2013-01-11 13:59:00,39.1,34.6,29.56,East,90,0.0,0.0,84,0.00,,,0.01,WUHU21636XXSP,2013-01-11 19:59:00,
2013-01-11 14:04:00,39.1,34.6,29.56,East,90,0.0,0.0,84,0.00,,,0.01,WUHU21636XXSP,2013-01-11 20:04:00,
2013-01-11 14:09:00,39.1,34.6,29.54,NE,45,0.0,0.0,84,0.00,,,0.01,WUHU21636XXSP,2013-01-11 20:09:00,
2013-01-11 14:14:00,39.4,35.2,29.54,ESE,112,0.0,0.0,85,0.00,,,0.01,WUHU21636XXSP,2013-01-11 20:14:00,
2013-01-11 14:19:00,39.6,35.4,29.54,ENE,67,0.0,0.0,85,0.00,,,0.01,WUHU21636XXSP,2013-01-11 20:19:00,
2013-01-11 14:24:00,39.6,35.4,29.56,ENE,67,0.0,0.0,85,0.00,,,0.01,WUHU21636XXSP,2013-01-11 20:24:00,
2013-01-11 14:29:00,39.6,35.4,29.56,ENE,67,0.0,0.0,85,0.00,,,0.01,WUHU21636XXSP,2013-01-11 20:29:00,
2013-01-11 14:34:00,39.6,35.4,29.55,ENE,67,0.0,0.0,85,0.00,,,0.01,WUHU21636XXSP,2013-01-11 20:34:00,
2013-01-11 14:39:00,39.6,35.4,29.55,NE,45,0.0,0.0,85,0.00,,,0.01,WUHU21636XXSP,2013-01-11 20:39:00,
2013-01-11 14:44:00,39.6,35.4,29.55,NE,45,0.0,0.0,85,0.00,,,0.01,WUHU21636XXSP,2013-01-11 20:44:00,
2013-01-11 14:49:00,39.6,35.4,29.55,SW,225,0.0,0.0,85,0.00,,,0.01,WUHU21636XXSP,2013-01-11 20:49:00,
2013-01-11 14:54:00,39.6,35.4,29.55,SW,225,0.0,0.0,85,0.00,,,0.01,WUHU21636XXSP,2013-01-11 20:54:00,
2013-01-11 14:59:00,39.6,35.4,29.55,SW,225,0.0,0.0,85,0.00,,,0.01,WUHU21636XXSP,2013-01-11 20:59:00,
2013-01-11 15:04:00,39.6,35.4,29.55,SW,225,0.0,0.0,85,0.00,,,0.01,WUHU21636XXSP,2013-01-11 21:04:00,
2013-01-11 15:09:00,39.4,35.2,29.56,West,270,0.0,0.0,85,0.00,,,0.01,WUHU21636XXSP,2013-01-11 21:09:00,
2013-01-11 15:14:00,39.4,35.2,29.56,WSW,247,0.0,0.0,85,0.00,,,0.01,WUHU21636XXSP,2013-01-11 21:14:00,
2013-01-11 15:19:00,39.4,35.2,29.55,SW,225,0.0,0.0,85,0.00,,,0.01,WUHU21636XXSP,2013-01-11 21:19:00,
2013-01-11 15:24:00,39.4,35.2,29.54,ENE,67,0.0,0.0,85,0.00,,,0.01,WUHU21636XXSP,2013-01-11 21:24:00,
2013-01-11 15:29:00,39.6,35.4,29.54,ENE,67,0.0,0.0,85,0.00,,,0.01,WUHU21636XXSP,2013-01-11 21:29:00,
2013-01-11 15:34:00,39.6,35.4,29.54,East,90,4.0,4.0,85,0.00,,,0.01,WUHU21636XXSP,2013-01-11 21:34:00,
2013-01-11 15:39:00,39.8,35.6,29.56,NE,45,0.0,4.0,85,0.00,,,0.01,WUHU21636XXSP,2013-01-11 21:39:00,
2013-01-11 15:44:00,39.4,35.2,29.56,NW,315,0.0,0.0,85,0.00,,,0.01,WUHU21636XXSP,2013-01-11 21:44:00,
2013-01-11 15:49:00,39.6,35.4,29.55,West,270,0.0,0.0,85,0.00,,,0.01,WUHU21636XXSP,2013-01-11 21:49:00,
2013-01-11 15:54:00,39.4,35.2,29.55,West,270,0.0,0.0,85,0.00,,,0.01,WUHU21636XXSP,2013-01-11 21:54:00,
2013-01-11 15:59:00,39.4,35.2,29.55,SW,225,0.0,0.0,85,0.00,,,0.01,WUHU21636XXSP,2013-01-11 21:59:00,
2013-01-11 16:04:00,39.1,34.6,29.56,NNW,337,0.0,0.0,84,0.00,,,0.01,WUHU21636XXSP,2013-01-11 22:04:00,
2013-01-11 16:09:00,39.1,34.6,29.56,NNW,337,0.0,0.0,84,0.00,,,0.01,WUHU21636XXSP,2013-01-11 22:09:00,
2013-01-11 16:14:00,39.1,34.6,29.55,NNW,337,0.0,0.0,84,0.00,,,0.01,WUHU21636XXSP,2013-01-11 22:14:00,
2013-01-11 16:19:00,39.1,34.6,29.55,NNW,337,0.0,0.0,84,0.00,,,0.01,WUHU21636XXSP,2013-01-11 22:19:00,
2013-01-11 16:24:00,38.8,34.4,29.55,WNW,292,0.0,0.0,84,0.00,,,0.01,WUHU21636XXSP,2013-01-11 22:24:00,
2013-01-11 16:29:00,38.8,34.4,29.55,NNE,22,0.0,0.0,84,0.00,,,0.01,WUHU21636XXSP,2013-01-11 22:29:00,
2013-01-11 16:34:00,38.8,34.4,29.55,NNE,22,0.0,0.0,84,0.00,,,0.01,WUHU21636XXSP,2013-01-11 22:34:00,
2013-01-11 16:39:00,38.8,34.4,29.54,NNE,22,0.0,0.0,84,0.00,,,0.01,WUHU21636XXSP,2013-01-11 22:39:00,
2013-01-11 16:44:00,39.1,34.6,29.54,WSW,247,0.0,0.0,84,0.00,,,0.01,WUHU21636XXSP,2013-01-11 22:44:00,
2013-01-11 16:49:00,39.4,35.2,29.54,WSW,247,0.0,0.0,85,0.00,,,0.01,WUHU21636XXSP,2013-01-11 22:49:00,
2013-01-11 16:54:00,39.6,35.4,29.55,NW,315,0.0,0.0,85,0.00,,,0.01,WUHU21636XXSP,2013-01-11 22:54:00,
2013-01-11 16:59:00,39.4,35.2,29.54,West,270,0.0,0.0,85,0.00,,,0.01,WUHU21636XXSP,2013-01-11 22:59:00,
2013-01-11 17:04:00,39.4,35.2,29.55,NE,45,0.0,0.0,85,0.00,,,0.01,WUHU21636XXSP,2013-01-11 23:04:00,
2013-01-11 17:09:00,39.4,35.2,29.54,WNW,292,0.0,0.0,85,0.00,,,0.01,WUHU21636XXSP,2013-01-11 23:09:00,
2013-01-11 17:14:00,39.4,35.2,29.54,WNW,292,0.0,0.0,85,0.00,,,0.01,WUHU21636XXSP,2013-01-11 23:14:00,
2013-01-11 17:19:00,39.6,35.4,29.55,West,270,0.0,0.0,85,0.00,,,0.01,WUHU21636XXSP,2013-01-11 23:19:00,
2013-01-11 17:24:00,39.6,35.4,29.54,West,270,0.0,0.0,85,0.00,,,0.01,WUHU21636XXSP,2013-01-11 23:24:00,
2013-01-11 17:29:00,39.6,35.4,29.53,North,0,0.0,0.0,85,0.00,,,0.01,WUHU21636XXSP,2013-01-11 23:29:00,
2013-01-11 17:34:00,40.0,35.8,29.53,West,270,0.0,0.0,85,0.00,,,0.01,WUHU21636XXSP,2013-01-11 23:34:00,
2013-01-11 17:39:00,40.2,36.0,29.53,East,90,0.0,0.0,85,0.00,,,0.01,WUHU21636XXSP,2013-01-11 23:39:00,
2013-01-11 17:44:00,39.6,35.4,29.53,NW,315,0.0,0.0,85,0.00,,,0.01,WUHU21636XXSP,2013-01-11 23:44:00,
2013-01-11 17:49:00,40.0,35.8,29.53,West,270,0.0,0.0,85,0.00,,,0.01,WUHU21636XXSP,2013-01-11 23:49:00,
2013-01-11 17:54:00,40.3,36.2,29.53,NW,315,0.0,0.0,85,0.00,,,0.01,WUHU21636XXSP,2013-01-11 23:54:00,
2013-01-11 17:59:00,40.3,36.2,29.52,South,180,0.0,0.0,85,0.00,,,0.01,WUHU21636XXSP,2013-01-11 23:59:00,
2013-01-11 18:04:00,40.3,36.2,29.53,West,270,0.0,0.0,85,0.00,,,0.01,WUHU21636XXSP,2013-01-12 00:04:00,
2013-01-11 18:09:00,40.3,36.2,29.53,WSW,247,0.0,0.0,85,0.00,,,0.01,WUHU21636XXSP,2013-01-12 00:09:00,
2013-01-11 18:14:00,40.5,36.4,29.53,South,180,1.2,1.2,85,0.00,,,0.01,WUHU21636XXSP,2013-01-12 00:14:00,
2013-01-11 18:19:00,40.5,36.4,29.53,SSW,202,0.0,1.2,85,0.00,,,0.01,WUHU21636XXSP,2013-01-12 00:19:00,
2013-01-11 18:24:00,40.5,36.4,29.54,West,270,0.0,0.0,85,0.00,,,0.01,WUHU21636XXSP,2013-01-12 00:24:00,
2013-01-11 18:29:00,40.5,36.4,29.53,WNW,292,3.4,3.4,85,0.00,,,0.01,WUHU21636XXSP,2013-01-12 00:29:00,
2013-01-11 18:34:00,41.3,37.1,29.52,West,270,0.0,3.4,85,0.00,,,0.01,WUHU21636XXSP,2013-01-12 00:34:00,
2013-01-11 18:39:00,41.0,36.8,29.52,ENE,67,0.0,0.0,85,0.00,,,0.01,WUHU21636XXSP,2013-01-12 00:39:00,
2013-01-11 18:44:00,40.7,36.6,29.52,East,90,0.0,0.0,85,0.00,,,0.01,WUHU21636XXSP,2013-01-12 00:44:00,
2013-01-11 18:49:00,41.3,37.1,29.51,SE,135,8.0,8.0,85,0.00,,,0.01,WUHU21636XXSP,2013-01-12 00:49:00,
2013-01-11 18:54:00,41.5,37.3,29.52,South,180,0.0,9.8,85,0.00,,,0.01,WUHU21636XXSP,2013-01-12 00:54:00,
2013-01-11 18:59:00,41.5,37.3,29.52,WNW,292,0.0,9.8,85,0.00,,,0.01,WUHU21636XXSP,2013-01-12 00:59:00,
2013-01-11 19:04:00,41.5,37.3,29.52,ESE,112,0.0,2.2,85,0.00,,,0.01,WUHU21636XXSP,2013-01-12 01:04:00,
2013-01-11 19:09:00,42.1,37.9,29.53,SW,225,0.0,2.2,85,0.00,,,0.01,WUHU21636XXSP,2013-01-12 01:09:00,
2013-01-11 19:14:00,42.1,37.9,29.53,WNW,292,0.0,0.0,85,0.00,,,0.01,WUHU21636XXSP,2013-01-12 01:14:00,
2013-01-11 19:19:00,42.6,38.4,29.53,WNW,292,6.6,6.6,85,0.00,,,0.01,WUHU21636XXSP,2013-01-12 01:19:00,
2013-01-11 19:24:00,42.8,38.6,29.53,SW,234,4.1,6.6,85,0.00,,,0.01,WUHU21636XXSP,2013-01-12 01:24:00,
2013-01-11 19:29:00,43.2,38.9,29.53,West,270,9.8,9.8,85,0.00,,,0.01,WUHU21636XXSP,2013-01-12 01:29:00,
2013-01-11 19:34:00,43.2,38.9,29.52,West,270,9.8,9.8,85,0.00,,,0.01,WUHU21636XXSP,2013-01-12 01:34:00,
2013-01-11 19:39:00,43.2,38.9,29.52,West,270,9.8,9.8,85,0.00,,,0.01,WUHU21636XXSP,2013-01-12 01:39:00,
2013-01-11 19:44:00,43.2,38.9,29.51,West,270,9.8,9.8,85,0.00,,,0.01,WUHU21636XXSP,2013-01-12 01:44:00,
2013-01-11 19:49:00,43.2,38.9,29.51,West,270,9.8,9.8,85,0.00,,,0.01,WUHU21636XXSP,2013-01-12 01:49:00,
2013-01-11 19:54:00,43.2,38.9,29.51,West,270,9.8,9.8,85,0.00,,,0.01,WUHU21636XXSP,2013-01-12 01:54:00,
2013-01-11 22:11:00,42.8,38.3,29.49,SSE,157,0.0,0.0,84,0.00,,,0.01,WUHU21636XXSP,2013-01-12 04:11:00,
2013-01-11 22:16:00,43.2,38.6,29.49,South,180,10.6,10.6,84,0.00,,,0.01,WUHU21636XXSP,2013-01-12 04:16:00,
2013-01-11 22:21:00,43.2,38.6,29.49,SW,225,0.0,10.6,84,0.00,,,0.01,WUHU21636XXSP,2013-01-12 04:21:00,
2013-01-11 22:26:00,43.2,38.6,29.49,NW,315,0.0,5.8,84,0.00,,,0.01,WUHU21636XXSP,2013-01-12 04:26:00,
2013-01-11 22:31:00,43.2,38.6,29.49,NNE,22,0.0,5.8,84,0.00,,,0.01,WUHU21636XXSP,2013-01-12 04:31:00,
2013-01-11 22:36:00,43.0,38.5,29.49,WNW,292,0.0,0.0,84,0.00,,,0.01,WUHU21636XXSP,2013-01-12 04:36:00,
2013-01-11 22:41:00,43.2,38.6,29.48,NNW,337,0.0,0.0,84,0.00,,,0.01,WUHU21636XXSP,2013-01-12 04:41:00,
2013-01-11 22:46:00,42.8,38.3,29.48,SSE,157,0.0,0.0,84,0.00,,,0.01,WUHU21636XXSP,2013-01-12 04:46:00,
2013-01-11 22:51:00,43.2,38.6,29.48,WNW,292,5.2,5.2,84,0.00,,,0.01,WUHU21636XXSP,2013-01-12 04:51:00,
2013-01-11 22:56:00,43.4,38.8,29.48,NNW,337,0.0,5.2,84,0.00,,,0.01,WUHU21636XXSP,2013-01-12 04:56:00,
2013-01-11 23:00:00,43.4,38.8,29.48,South,180,0.0,5.2,84,0.00,,,0.01,WUHU21636XXSP,2013-01-12 05:00:00,
2013-01-11 23:01:00,43.4,38.8,29.48,South,180,0.0,0.0,84,0.00,,,0.01,WUHU21636XXSP,2013-01-12 05:01:00,
2013-01-11 23:02:00,43.4,38.8,29.48,WSW,247,0.0,0.0,84,0.00,,,0.01,WUHU21636XXSP,2013-01-12 05:02:00,
2013-01-11 23:07:00,43.4,38.8,29.48,SW,225,0.0,0.0,84,0.00,,,0.01,WUHU21636XXSP,2013-01-12 05:07:00,
2013-01-11 23:12:00,43.2,38.6,29.48,West,270,6.2,6.2,84,0.00,,,0.01,WUHU21636XXSP,2013-01-12 05:12:00,
2013-01-11 23:17:00,43.4,38.8,29.48,West,270,0.0,6.2,84,0.00,,,0.01,WUHU21636XXSP,2013-01-12 05:17:00,
2013-01-11 23:22:00,44.0,39.5,29.48,North,0,1.2,18.6,84,0.00,,,0.01,WUHU21636XXSP,2013-01-12 05:22:00,
2013-01-11 23:27:00,44.0,39.5,29.48,SSE,157,2.2,18.6,84,0.00,,,0.01,WUHU21636XXSP,2013-01-12 05:27:00,
2013-01-11 23:32:00,44.0,39.5,29.47,WSW,247,7.0,7.0,84,0.00,,,0.01,WUHU21636XXSP,2013-01-12 05:32:00,
2013-01-11 23:37:00,44.1,39.6,29.47,WSW,247,0.0,7.0,84,0.00,,,0.01,WUHU21636XXSP,2013-01-12 05:37:00,
2013-01-11 23:42:00,44.1,39.6,29.47,SW,225,5.2,7.0,84,0.00,,,0.01,WUHU21636XXSP,2013-01-12 05:42:00,
2013-01-11 23:47:00,44.7,39.9,29.47,WSW,244,8.9,23.6,83,0.00,,,0.01,WUHU21636XXSP,2013-01-12 05:47:00,
2013-01-11 23:52:00,44.9,40.1,29.47,NNW,337,5.2,23.6,83,0.00,,,0.01,WUHU21636XXSP,2013-01-12 05:52:00,
2013-01-11 23:57:00,45.0,39.9,29.46,SW,225,5.8,16.4,82,0.00,,,0.01,WUHU21636XXSP,2013-01-12 05:57:00,